Time;durP1;ratioP1;P1;durP2;ratioP2;P2;SDS_P1;SDS_P2;PMS_P1;PMS_P2;Temp;Humidity;BMP_temperature;BMP_pressure;BME280_temperature;BME280_humidity;BME280_pressure;Samples;Min_cycle;Max_cycle;Signal;HPM_P1;HPM_P2
2023/10/25 00:02:11;;;;;;;16.87;13.27;;;;;;;10.94;92.14;99045.56;5050308;28;20207;-65
2023/10/25 00:04:41;;;;;;;16.83;13.47;;;;;;;10.94;92.19;99037.84;5049954;28;20268;-62
2023/10/25 00:07:12;;;;;;;16.90;13.27;;;;;;;10.94;92.31;99032.69;5050387;28;20249;-62
2023/10/25 00:09:40;;;;;;;17.77;13.97;;;;;;;10.97;92.42;99035.16;5049849;28;20202;-63
2023/10/25 00:12:08;;;;;;;19.23;14.57;;;;;;;10.96;92.53;99028.31;5061523;28;20667;-63
2023/10/25 00:14:37;;;;;;;16.70;13.00;;;;;;;10.97;92.93;99024.84;5049583;28;20229;-63
2023/10/25 00:17:06;;;;;;;17.83;12.77;;;;;;;10.94;93.14;99011.22;5049397;28;20609;-61
2023/10/25 00:19:34;;;;;;;16.47;11.83;;;;;;;10.95;92.82;99016.31;5050742;28;20683;-67
2023/10/25 00:22:02;;;;;;;17.23;12.73;;;;;;;10.93;93.35;99005.19;5047584;28;20209;-63
2023/10/25 00:24:30;;;;;;;15.90;12.13;;;;;;;10.92;93.20;99006.09;5049353;28;20202;-63
2023/10/25 00:26:58;;;;;;;18.00;13.50;;;;;;;10.91;93.70;99001.84;5051592;28;20221;-65
2023/10/25 00:29:26;;;;;;;17.47;12.93;;;;;;;10.91;93.78;98988.94;5047732;28;20222;-65
2023/10/25 00:31:55;;;;;;;15.77;12.43;;;;;;;10.89;93.70;98993.28;5047272;28;20213;-62
2023/10/25 00:34:23;;;;;;;18.50;12.50;;;;;;;10.87;93.85;98982.19;5048050;28;20210;-63
2023/10/25 00:36:51;;;;;;;17.77;13.17;;;;;;;10.85;94.35;98981.38;5054584;28;20202;-66
2023/10/25 00:39:19;;;;;;;16.33;12.93;;;;;;;10.86;94.31;98972.75;5047569;28;20221;-64
2023/10/25 00:41:47;;;;;;;17.57;12.83;;;;;;;10.87;94.55;98966.75;5051711;28;20561;-65
2023/10/25 00:44:16;;;;;;;16.90;13.60;;;;;;;10.87;95.29;98961.59;5055259;28;20281;-63
2023/10/25 00:46:49;;;;;;;18.17;13.30;;;;;;;10.86;94.57;98962.44;5049778;28;20210;-64
2023/10/25 00:49:19;;;;;;;18.07;12.87;;;;;;;10.88;94.73;98960.69;5049388;28;20216;-64
2023/10/25 00:51:47;;;;;;;16.00;12.67;;;;;;;10.88;94.86;98960.69;5049223;28;20206;-67
2023/10/25 00:54:16;;;;;;;17.17;12.07;;;;;;;10.88;94.96;98950.38;5049560;28;20216;-67
2023/10/25 00:56:44;;;;;;;18.33;12.33;;;;;;;10.88;94.69;98951.22;5047822;28;20210;-65
2023/10/25 00:59:13;;;;;;;15.50;12.03;;;;;;;10.87;94.69;98940.97;5050257;28;20205;-65
2023/10/25 01:01:42;;;;;;;18.80;13.57;;;;;;;10.84;95.08;98944.47;5048226;28;20206;-66
2023/10/25 01:04:10;;;;;;;16.90;12.37;;;;;;;10.86;94.95;98937.56;5048814;28;20217;-65
2023/10/25 01:06:40;;;;;;;17.17;12.60;;;;;;;10.85;95.29;98938.41;5047800;28;20681;-65
2023/10/25 01:09:08;;;;;;;17.50;12.33;;;;;;;10.86;95.24;98936.69;5051026;28;20214;-65
2023/10/25 01:11:36;;;;;;;14.83;12.63;;;;;;;10.85;95.17;98929.84;5043651;28;20235;-65
2023/10/25 01:14:05;;;;;;;16.00;12.10;;;;;;;10.82;95.40;98920.47;5046423;28;20206;-64
2023/10/25 01:16:33;;;;;;;16.47;12.43;;;;;;;10.87;95.40;98912.63;5049199;28;20229;-67
2023/10/25 01:19:01;;;;;;;18.00;11.17;;;;;;;10.88;95.49;98914.31;5048569;28;20226;-63
2023/10/25 01:21:29;;;;;;;15.50;12.17;;;;;;;10.87;95.83;98910.88;5041461;28;20210;-63
2023/10/25 01:23:59;;;;;;;15.97;12.63;;;;;;;10.87;95.70;98908.31;5055922;28;20552;-62
2023/10/25 01:26:27;;;;;;;17.73;12.00;;;;;;;10.87;95.86;98897.16;5055681;28;20573;-63
2023/10/25 01:28:55;;;;;;;17.27;12.40;;;;;;;10.86;96.23;98898.03;5048969;28;20214;-63
2023/10/25 01:31:23;;;;;;;18.93;12.83;;;;;;;10.87;96.14;98898.00;5047668;28;20202;-65
2023/10/25 01:33:51;;;;;;;14.57;12.23;;;;;;;10.87;96.33;98886.84;5042828;28;20208;-64
2023/10/25 01:36:19;;;;;;;19.60;12.43;;;;;;;10.85;96.21;98884.31;5048477;28;20217;-65
2023/10/25 01:38:48;;;;;;;16.60;12.00;;;;;;;10.87;96.34;98881.69;5048919;28;20293;-65
2023/10/25 01:41:18;;;;;;;18.77;12.07;;;;;;;10.85;96.35;98874.00;5056294;28;20589;-64
2023/10/25 01:43:46;;;;;;;14.87;11.60;;;;;;;10.83;96.75;98862.91;5062333;28;20198;-66
2023/10/25 01:46:14;;;;;;;16.00;11.90;;;;;;;10.80;96.58;98857.84;5049845;28;20229;-64
2023/10/25 01:48:44;;;;;;;14.63;11.10;;;;;;;10.78;96.83;98846.75;5046937;28;20221;-66
2023/10/25 01:51:12;;;;;;;16.13;12.40;;;;;;;10.76;97.26;98847.69;5042707;28;20215;-64
2023/10/25 01:53:40;;;;;;;17.43;12.37;;;;;;;10.72;97.19;98840.97;5048995;28;20565;-65
2023/10/25 01:56:08;;;;;;;15.07;11.63;;;;;;;10.72;97.85;98840.97;5052423;28;20550;-65
2023/10/25 01:58:37;;;;;;;14.70;11.70;;;;;;;10.70;97.94;98837.56;5051710;28;20197;-64
2023/10/25 02:01:06;;;;;;;16.57;12.83;;;;;;;10.72;97.82;98830.66;5050626;28;20565;-67
2023/10/25 02:03:34;;;;;;;15.70;12.23;;;;;;;10.73;98.46;98827.19;5053936;28;20206;-64
2023/10/25 02:06:11;;;;;;;19.13;12.60;;;;;;;10.74;98.38;98824.53;5049985;28;20199;-63
2023/10/25 02:08:39;;;;;;;18.50;12.77;;;;;;;10.72;98.22;98817.78;5048911;28;20218;-63
2023/10/25 02:11:08;;;;;;;15.23;12.10;;;;;;;10.69;98.20;98810.13;5052399;28;20201;-61
2023/10/25 02:13:37;;;;;;;15.77;11.90;;;;;;;10.71;98.32;98813.50;5050418;28;20230;-63
2023/10/25 02:16:14;;;;;;;17.23;12.20;;;;;;;10.72;98.83;98812.63;5055683;28;20313;-62
2023/10/25 02:18:42;;;;;;;13.73;11.37;;;;;;;10.74;98.69;98808.25;5049058;28;20201;-62
2023/10/25 02:21:11;;;;;;;16.67;12.23;;;;;;;10.74;98.57;98805.66;5059696;28;20653;-64
2023/10/25 02:23:40;;;;;;;16.83;12.17;;;;;;;10.72;98.09;98803.16;5048486;28;20214;-61
2023/10/25 02:26:08;;;;;;;15.37;11.53;;;;;;;10.71;98.27;98798.03;5048841;28;20579;-63
2023/10/25 02:28:37;;;;;;;16.50;11.77;;;;;;;10.64;98.37;98793.09;5052382;28;20681;-65
2023/10/25 02:31:05;;;;;;;15.57;11.77;;;;;;;10.61;98.72;98788.03;5047690;28;20221;-67
2023/10/25 02:33:34;;;;;;;18.47;12.63;;;;;;;10.62;99.26;98788.88;5051505;28;20193;-64
2023/10/25 02:36:01;;;;;;;16.27;12.60;;;;;;;10.60;99.30;98786.38;5049880;28;20229;-64
2023/10/25 02:38:29;;;;;;;16.03;11.37;;;;;;;10.60;99.50;98795.78;5054067;28;20661;-63
2023/10/25 02:40:57;;;;;;;12.53;10.37;;;;;;;10.59;99.70;98794.13;5051975;28;20256;-64
2023/10/25 02:43:25;;;;;;;16.33;12.00;;;;;;;10.57;99.77;98793.34;5049648;28;20296;-64
2023/10/25 02:46:01;;;;;;;15.23;11.63;;;;;;;10.53;99.91;98787.44;5054813;28;20208;-66
2023/10/25 02:48:30;;;;;;;15.13;12.47;;;;;;;10.53;100.00;98774.56;5050169;28;20288;-63
2023/10/25 02:50:59;;;;;;;14.50;11.97;;;;;;;10.54;100.00;98772.84;5053414;28;20226;-63
2023/10/25 02:53:27;;;;;;;15.57;11.20;;;;;;;10.55;100.00;98772.78;5049458;28;20735;-64
2023/10/25 02:55:59;;;;;;;15.37;11.87;;;;;;;10.55;100.00;98762.47;5050356;28;20256;-64
2023/10/25 02:58:27;;;;;;;15.73;11.97;;;;;;;10.56;100.00;98761.56;5056008;28;20200;-63
2023/10/25 03:00:57;;;;;;;16.17;12.47;;;;;;;10.57;100.00;98760.69;5051281;28;20564;-63
2023/10/25 03:03:25;;;;;;;16.93;12.00;;;;;;;10.60;100.00;98763.19;5052101;28;20255;-61
2023/10/25 03:05:53;;;;;;;17.17;12.60;;;;;;;10.59;100.00;98750.34;5056804;28;20202;-61
2023/10/25 03:08:21;;;;;;;21.93;12.87;;;;;;;10.56;100.00;98753.84;5055279;28;20653;-62
2023/10/25 03:10:49;;;;;;;15.93;12.07;;;;;;;10.59;100.00;98752.91;5054846;28;20236;-62
2023/10/25 03:13:17;;;;;;;15.10;11.20;;;;;;;10.60;100.00;98742.56;5052094;28;20220;-62
2023/10/25 03:15:45;;;;;;;14.70;11.90;;;;;;;10.60;99.91;98745.16;5054753;28;20237;-61
2023/10/25 03:18:14;;;;;;;17.97;12.87;;;;;;;10.61;100.00;98741.69;5046196;28;20226;-61
2023/10/25 03:20:42;;;;;;;16.23;11.90;;;;;;;10.63;100.00;98736.47;5051158;28;20210;-66
2023/10/25 03:23:10;;;;;;;16.10;12.50;;;;;;;10.65;100.00;98737.28;5062783;28;20214;-65
2023/10/25 03:25:38;;;;;;;14.63;11.23;;;;;;;10.64;100.00;98733.84;5060421;28;20209;-66
2023/10/25 03:28:06;;;;;;;13.67;12.00;;;;;;;10.64;99.89;98728.69;5054865;28;20206;-65
2023/10/25 03:30:36;;;;;;;16.23;12.17;;;;;;;10.64;100.00;98725.25;5050921;28;20305;-65
2023/10/25 03:33:04;;;;;;;14.60;12.00;;;;;;;10.66;100.00;98725.22;5045089;28;20287;-64
2023/10/25 03:35:33;;;;;;;15.73;12.30;;;;;;;10.67;100.00;98724.31;5047213;28;20209;-69
2023/10/25 03:38:01;;;;;;;16.20;12.77;;;;;;;10.69;100.00;98723.38;5056152;28;20214;-64
2023/10/25 03:40:29;;;;;;;16.30;12.50;;;;;;;10.70;99.97;98711.34;5051014;28;20198;-65
2023/10/25 03:42:57;;;;;;;16.17;12.53;;;;;;;10.68;100.00;98706.25;5058709;28;20201;-62
2023/10/25 03:45:25;;;;;;;17.00;12.93;;;;;;;10.69;99.70;98712.25;5053256;28;20667;-67
2023/10/25 03:47:53;;;;;;;18.77;12.90;;;;;;;10.72;99.95;98707.00;5061879;28;20194;-66
2023/10/25 03:50:21;;;;;;;18.20;12.33;;;;;;;10.66;99.86;98702.88;5046331;28;20257;-62
2023/10/25 03:52:51;;;;;;;16.60;12.40;;;;;;;10.68;99.81;98703.69;5048642;28;20275;-63
2023/10/25 03:55:19;;;;;;;15.50;12.60;;;;;;;10.67;100.00;98701.13;5050505;28;20221;-62
2023/10/25 03:57:48;;;;;;;17.57;12.30;;;;;;;10.67;100.00;98693.41;5056428;28;20751;-63
2023/10/25 04:00:16;;;;;;;16.47;13.23;;;;;;;10.70;100.00;98688.16;5050160;28;20221;-64
2023/10/25 04:02:44;;;;;;;14.80;12.47;;;;;;;10.73;99.88;98693.22;5049641;28;20202;-63
2023/10/25 04:05:12;;;;;;;14.60;12.33;;;;;;;10.75;99.94;98681.09;5052669;28;20221;-63
2023/10/25 04:07:40;;;;;;;17.73;13.03;;;;;;;10.76;99.91;98672.50;5057166;28;20201;-62
2023/10/25 04:10:10;;;;;;;17.53;13.47;;;;;;;10.78;99.88;98673.28;5051850;28;20244;-62
2023/10/25 04:12:38;;;;;;;17.37;12.97;;;;;;;10.75;99.53;98661.38;5052542;28;20212;-64
2023/10/25 04:15:07;;;;;;;14.63;12.93;;;;;;;10.80;99.62;98672.34;5050746;28;20198;-61
2023/10/25 04:17:35;;;;;;;14.13;12.00;;;;;;;10.80;99.37;98662.03;5047814;28;20232;-62
2023/10/25 04:20:04;;;;;;;13.63;12.20;;;;;;;10.78;99.41;98660.41;5045434;28;20297;-62
2023/10/25 04:22:31;;;;;;;20.17;13.20;;;;;;;10.76;99.87;98649.31;5058687;28;20201;-62
2023/10/25 04:25:00;;;;;;;14.40;12.47;;;;;;;10.76;99.88;98650.16;5053547;28;20343;-64
2023/10/25 04:27:30;;;;;;;15.07;12.73;;;;;;;10.75;99.88;98633.03;5049597;28;20213;-64
2023/10/25 04:29:58;;;;;;;16.43;12.63;;;;;;;10.76;99.89;98644.16;5048008;28;20599;-63
2023/10/25 04:32:26;;;;;;;16.30;13.37;;;;;;;10.77;100.00;98643.25;5046528;28;20633;-63
2023/10/25 04:34:56;;;;;;;14.87;12.57;;;;;;;10.76;100.00;98645.00;5050349;28;20202;-64
2023/10/25 04:37:27;;;;;;;15.27;13.67;;;;;;;10.76;100.00;98641.59;5047057;28;20683;-64
2023/10/25 04:39:55;;;;;;;16.30;13.53;;;;;;;10.76;100.00;98633.88;5044347;28;20233;-65
2023/10/25 04:42:23;;;;;;;14.90;12.63;;;;;;;10.77;100.00;98627.81;5039422;28;20855;-66
2023/10/25 04:44:53;;;;;;;15.20;13.00;;;;;;;10.76;100.00;98626.13;5053303;28;20239;-65
2023/10/25 04:47:21;;;;;;;15.47;13.37;;;;;;;10.77;100.00;98622.66;5050068;28;20217;-64
2023/10/25 04:49:49;;;;;;;16.67;13.80;;;;;;;10.75;100.00;98615.00;5051525;28;20272;-60
2023/10/25 04:52:19;;;;;;;16.67;13.20;;;;;;;10.76;100.00;98616.66;5055249;28;20201;-65
2023/10/25 04:54:47;;;;;;;15.67;13.27;;;;;;;10.75;100.00;98609.84;5052489;28;20652;-62
2023/10/25 04:57:17;;;;;;;15.57;13.47;;;;;;;10.75;100.00;98601.25;5046367;28;20230;-65
2023/10/25 04:59:45;;;;;;;15.57;12.33;;;;;;;10.76;100.00;98610.69;5052488;28;20234;-63
2023/10/25 05:02:14;;;;;;;15.73;12.87;;;;;;;10.74;100.00;98599.56;5054329;28;20198;-62
2023/10/25 05:04:42;;;;;;;19.23;14.03;;;;;;;10.73;100.00;98605.63;5049913;28;20229;-63
2023/10/25 05:07:10;;;;;;;16.83;13.23;;;;;;;10.73;100.00;98608.19;5044809;28;20214;-62
2023/10/25 05:09:39;;;;;;;14.90;12.80;;;;;;;10.73;100.00;98606.47;5045624;28;20259;-65
2023/10/25 05:12:13;;;;;;;16.80;12.27;;;;;;;10.73;100.00;98600.47;5050145;28;20326;-63
2023/10/25 05:14:43;;;;;;;14.90;12.93;;;;;;;10.73;100.00;98608.19;5054769;28;20229;-64
2023/10/25 05:17:11;;;;;;;15.07;12.70;;;;;;;10.73;100.00;98603.88;5039284;28;20238;-63
2023/10/25 05:19:41;;;;;;;17.80;14.00;;;;;;;10.74;100.00;98597.00;5055633;28;20214;-63
2023/10/25 05:22:12;;;;;;;16.40;13.13;;;;;;;10.76;100.00;98598.63;5049745;28;20738;-64
2023/10/25 05:24:40;;;;;;;16.83;12.97;;;;;;;10.77;100.00;98592.56;5050483;28;20230;-64
2023/10/25 05:27:09;;;;;;;15.03;11.80;;;;;;;10.80;100.00;98599.38;5056515;28;20206;-62
2023/10/25 05:29:38;;;;;;;14.17;12.67;;;;;;;10.78;100.00;98593.41;5051104;28;20210;-62
2023/10/25 05:32:10;;;;;;;15.30;12.20;;;;;;;10.78;100.00;98589.09;5050514;28;20213;-64
2023/10/25 05:34:38;;;;;;;15.13;12.63;;;;;;;10.79;100.00;98592.53;5048272;28;20259;-61
2023/10/25 05:37:09;;;;;;;13.10;11.37;;;;;;;10.80;100.00;98596.78;5053856;28;20198;-63
2023/10/25 05:39:37;;;;;;;15.97;12.87;;;;;;;10.82;100.00;98587.25;5049169;28;20665;-62
2023/10/25 05:42:08;;;;;;;15.30;13.07;;;;;;;10.82;100.00;98590.66;5045054;28;20286;-63
2023/10/25 05:44:37;;;;;;;16.53;12.83;;;;;;;10.84;100.00;98599.19;5053024;28;20228;-63
2023/10/25 05:47:05;;;;;;;13.90;12.50;;;;;;;10.85;100.00;98592.28;5048569;28;20213;-64
2023/10/25 05:49:34;;;;;;;15.57;12.93;;;;;;;10.84;100.00;98588.06;5050890;28;20292;-65
2023/10/25 05:52:02;;;;;;;16.57;12.97;;;;;;;10.84;100.00;98588.06;5053297;28;20591;-63
2023/10/25 05:54:33;;;;;;;13.57;11.63;;;;;;;10.83;100.00;98589.78;5054318;28;20586;-61
2023/10/25 05:57:02;;;;;;;15.27;12.47;;;;;;;10.82;100.00;98585.50;5053667;28;20198;-61
2023/10/25 05:59:30;;;;;;;12.63;11.33;;;;;;;10.79;100.00;98585.66;5051317;28;20225;-61
2023/10/25 06:02:07;;;;;;;13.00;11.43;;;;;;;10.81;100.00;98583.00;5058110;28;20287;-62
2023/10/25 06:04:37;;;;;;;13.10;11.00;;;;;;;10.81;100.00;98577.84;5050174;28;20254;-61
2023/10/25 06:07:07;;;;;;;11.87;10.67;;;;;;;10.80;100.00;98576.19;5048646;28;20616;-62
2023/10/25 06:09:37;;;;;;;12.93;11.53;;;;;;;10.78;100.00;98577.94;5052649;28;20700;-63
2023/10/25 06:12:07;;;;;;;12.40;11.10;;;;;;;10.82;100.00;98575.19;5057238;28;20711;-60
2023/10/25 06:14:35;;;;;;;14.70;12.10;;;;;;;10.84;100.00;98572.59;5056512;28;20209;-61
2023/10/25 06:17:04;;;;;;;14.80;11.37;;;;;;;10.86;100.00;98575.94;5042062;28;20272;-61
2023/10/25 06:19:32;;;;;;;11.93;10.40;;;;;;;10.89;100.00;98575.81;5064847;28;20527;-62
2023/10/25 06:22:00;;;;;;;12.03;10.63;;;;;;;10.91;100.00;98568.91;5052499;28;20718;-61
2023/10/25 06:24:28;;;;;;;12.07;10.77;;;;;;;10.95;100.00;98577.34;5062529;28;20219;-63
2023/10/25 06:26:58;;;;;;;12.23;10.07;;;;;;;10.92;100.00;98568.00;5061840;28;20233;-62
2023/10/25 06:29:27;;;;;;;12.57;10.13;;;;;;;10.90;100.00;98559.50;5053965;28;20587;-61
2023/10/25 06:31:58;;;;;;;11.03;9.93;;;;;;;10.92;100.00;98564.56;5051111;28;20689;-63
2023/10/25 06:34:28;;;;;;;10.57;9.47;;;;;;;10.92;100.00;98569.72;5045970;28;20214;-64
2023/10/25 06:36:57;;;;;;;10.70;9.60;;;;;;;10.91;100.00;98568.91;5048245;28;20627;-63
2023/10/25 06:39:25;;;;;;;10.03;9.03;;;;;;;10.88;100.00;98566.44;5040869;28;20284;-62
2023/10/25 06:41:54;;;;;;;11.00;9.90;;;;;;;10.88;100.00;98569.84;5061922;28;20232;-61
2023/10/25 06:44:25;;;;;;;9.93;8.93;;;;;;;10.88;100.00;98569.84;5059249;28;20549;-61
2023/10/25 06:46:54;;;;;;;9.90;8.90;;;;;;;10.86;100.00;98568.19;5052833;28;20225;-62
2023/10/25 06:49:22;;;;;;;10.33;9.23;;;;;;;10.82;100.00;98564.91;5052910;28;20653;-62
2023/10/25 06:51:51;;;;;;;10.43;9.43;;;;;;;10.82;100.00;98570.06;5068072;28;20228;-62
2023/10/25 06:54:19;;;;;;;10.50;9.40;;;;;;;10.82;100.00;98571.78;5064394;28;20194;-61
2023/10/25 06:56:48;;;;;;;11.57;8.93;;;;;;;10.80;100.00;98560.72;5058915;28;20290;-61
2023/10/25 06:59:16;;;;;;;9.40;8.50;;;;;;;10.80;100.00;98556.41;5052603;28;20646;-61
2023/10/25 07:01:53;;;;;;;8.90;8.00;;;;;;;10.79;100.00;98562.47;5046685;28;20204;-61
2023/10/25 07:04:23;;;;;;;9.77;8.23;;;;;;;10.80;100.00;98556.41;5056789;28;20607;-61
2023/10/25 07:06:52;;;;;;;9.23;8.20;;;;;;;10.77;100.00;98559.09;5050406;28;20202;-65
2023/10/25 07:09:21;;;;;;;9.80;8.60;;;;;;;10.74;100.00;98558.34;5057204;28;20224;-64
2023/10/25 07:11:49;;;;;;;12.07;9.43;;;;;;;10.70;100.00;98549.91;5056035;28;20221;-66
2023/10/25 07:14:17;;;;;;;10.10;9.10;;;;;;;10.74;100.00;98550.63;5053508;28;20205;-68
2023/10/25 07:16:46;;;;;;;9.40;8.47;;;;;;;10.77;100.00;98550.53;5048336;28;20291;-67
2023/10/25 07:19:14;;;;;;;8.27;7.47;;;;;;;10.78;100.00;98555.59;5059594;28;20288;-67
2023/10/25 07:21:43;;;;;;;9.40;8.50;;;;;;;10.77;100.00;98555.66;5055649;28;20202;-64
2023/10/25 07:24:10;;;;;;;9.80;8.70;;;;;;;10.77;100.00;98556.50;5058881;28;20210;-68
2023/10/25 07:26:38;;;;;;;11.40;9.07;;;;;;;10.81;100.00;98557.22;5052765;28;20344;-64
2023/10/25 07:29:09;;;;;;;9.80;8.80;;;;;;;10.83;100.00;98558.03;5048344;28;20693;-71
2023/10/25 07:31:37;;;;;;;13.50;9.40;;;;;;;10.82;100.00;98553.75;5053360;28;20613;-64
2023/10/25 07:34:06;;;;;;;9.43;8.43;;;;;;;10.89;100.00;98556.06;5053027;28;20218;-66
2023/10/25 07:36:34;;;;;;;9.93;8.40;;;;;;;10.94;100.00;98555.91;5052554;28;20639;-63
2023/10/25 07:39:02;;;;;;;10.77;8.60;;;;;;;10.97;100.00;98553.22;5052477;28;20208;-61
2023/10/25 07:41:30;;;;;;;11.43;8.07;;;;;;;10.98;100.00;98554.88;5057893;28;20786;-67
2023/10/25 07:44:00;;;;;;;9.17;8.27;;;;;;;11.01;100.00;98557.34;5052830;28;20202;-65
2023/10/25 07:46:28;;;;;;;9.27;8.33;;;;;;;11.00;100.00;98558.22;5056875;28;20248;-66
2023/10/25 07:48:56;;;;;;;9.10;8.03;;;;;;;11.01;100.00;98554.78;5061946;28;20675;-65
2023/10/25 07:51:26;;;;;;;8.63;7.77;;;;;;;11.06;100.00;98552.03;5054986;28;20244;-66
2023/10/25 07:53:54;;;;;;;10.70;8.27;;;;;;;11.11;100.00;98558.66;5051207;28;20209;-66
2023/10/25 07:56:22;;;;;;;9.90;7.50;;;;;;;11.16;100.00;98555.94;5057075;28;20197;-65
2023/10/25 07:59:10;;;;;;;9.67;7.83;;;;;;;11.20;100.00;98554.94;5054212;28;20293;-66
2023/10/25 08:01:38;;;;;;;9.77;7.77;;;;;;;11.24;100.00;98550.50;5056586;28;20243;-65
2023/10/25 08:04:06;;;;;;;8.27;7.13;;;;;;;11.28;100.00;98555.47;5056798;28;20201;-67
2023/10/25 08:06:36;;;;;;;8.10;7.00;;;;;;;11.33;100.00;98557.84;5053707;28;20682;-64
2023/10/25 08:09:05;;;;;;;9.10;7.23;;;;;;;11.37;100.00;98551.69;5048926;28;20556;-67
2023/10/25 08:11:36;;;;;;;7.63;6.77;;;;;;;11.40;100.00;98546.41;5056739;28;20210;-67
2023/10/25 08:14:04;;;;;;;8.17;7.37;;;;;;;11.46;100.00;98542.75;5056199;28;20220;-66
2023/10/25 08:16:38;;;;;;;10.53;7.13;;;;;;;11.48;100.00;98543.53;5054132;28;20323;-68
2023/10/25 08:19:06;;;;;;;7.70;6.90;;;;;;;11.50;100.00;98544.31;5050811;28;20241;-66
2023/10/25 08:21:36;;;;;;;8.13;6.50;;;;;;;11.43;99.67;98541.13;5050474;28;20684;-66
2023/10/25 08:24:06;;;;;;;7.57;6.77;;;;;;;11.49;100.00;98545.22;5053328;28;20274;-67
2023/10/25 08:26:37;;;;;;;6.70;6.10;;;;;;;11.50;100.00;98552.91;5056221;28;20202;-69
2023/10/25 08:29:05;;;;;;;8.00;7.23;;;;;;;11.52;99.99;98545.09;5041228;28;20205;-65
2023/10/25 08:31:33;;;;;;;7.97;7.00;;;;;;;11.53;99.41;98546.78;5046861;28;20263;-68
2023/10/25 08:34:01;;;;;;;6.80;6.10;;;;;;;11.53;99.18;98552.78;5053432;28;20224;-65
2023/10/25 08:36:30;;;;;;;7.73;5.73;;;;;;;11.56;99.48;98549.22;5063899;28;20657;-65
2023/10/25 08:38:59;;;;;;;6.60;6.00;;;;;;;11.59;99.72;98547.34;5050264;28;20209;-65
2023/10/25 08:41:28;;;;;;;7.57;6.87;;;;;;;11.65;99.41;98551.44;5047356;28;20202;-63
2023/10/25 08:43:59;;;;;;;6.17;5.63;;;;;;;11.69;99.46;98552.16;5052178;28;20712;-62
2023/10/25 08:46:29;;;;;;;6.40;5.80;;;;;;;11.75;98.96;98542.44;5052486;28;20205;-62
2023/10/25 08:48:58;;;;;;;6.93;6.23;;;;;;;11.79;98.79;98543.16;5053681;28;20730;-65
2023/10/25 08:51:26;;;;;;;7.37;5.83;;;;;;;11.79;97.59;98543.16;5049290;28;20644;-63
2023/10/25 08:53:59;;;;;;;6.57;5.90;;;;;;;11.78;97.21;98537.16;5050962;28;20680;-62
2023/10/25 08:56:29;;;;;;;8.27;6.40;;;;;;;11.76;97.69;98535.53;5047044;28;20627;-64
2023/10/25 08:59:00;;;;;;;6.50;5.90;;;;;;;11.79;97.04;98540.59;5049241;28;20215;-65
2023/10/25 09:01:30;;;;;;;6.73;5.97;;;;;;;11.77;97.13;98538.03;5048132;28;20267;-61
2023/10/25 09:04:05;;;;;;;7.27;6.17;;;;;;;11.79;97.16;98545.75;5049218;28;20218;-63
2023/10/25 09:06:34;;;;;;;8.00;5.93;;;;;;;11.79;96.89;98543.16;5048320;28;20232;-62
2023/10/25 09:09:05;;;;;;;5.70;4.80;;;;;;;11.81;97.37;98543.91;5057572;28;20661;-63
2023/10/25 09:11:46;;;;;;;6.47;5.77;;;;;;;11.83;96.74;98545.59;5054278;28;20564;-66
2023/10/25 09:14:14;;;;;;;6.10;5.50;;;;;;;11.87;96.83;98545.47;5050514;28;20217;-63
2023/10/25 09:16:43;;;;;;;5.83;5.33;;;;;;;11.89;96.71;98539.31;5048940;28;20307;-63
2023/10/25 09:19:12;;;;;;;5.67;4.83;;;;;;;11.88;96.57;98532.47;5052590;28;20215;-63
2023/10/25 09:21:40;;;;;;;5.63;5.00;;;;;;;11.90;96.03;98535.84;5058667;28;20233;-65
2023/10/25 09:24:09;;;;;;;5.83;5.30;;;;;;;11.90;96.19;98540.19;5066610;28;20200;-64
2023/10/25 09:26:39;;;;;;;6.07;5.47;;;;;;;11.88;95.91;98535.06;5053487;28;20632;-63
2023/10/25 09:29:11;;;;;;;6.27;5.17;;;;;;;11.84;95.76;98531.75;5058329;28;20708;-65
2023/10/25 09:31:39;;;;;;;6.10;5.00;;;;;;;11.84;96.34;98536.94;5062341;28;20213;-63
2023/10/25 09:34:09;;;;;;;5.40;4.90;;;;;;;11.86;96.55;98529.13;5055925;28;20704;-64
2023/10/25 09:36:40;;;;;;;7.03;5.47;;;;;;;11.90;96.47;98529.84;5053519;28;20206;-64
2023/10/25 09:39:10;;;;;;;9.37;5.37;;;;;;;11.93;95.95;98527.97;5058620;28;20201;-64
2023/10/25 09:41:40;;;;;;;5.80;5.20;;;;;;;11.91;96.17;98532.34;5062609;28;20205;-64
2023/10/25 09:44:18;;;;;;;5.40;4.90;;;;;;;11.94;96.05;98527.06;5057725;28;20930;-63
2023/10/25 09:46:48;;;;;;;6.23;5.63;;;;;;;11.97;96.20;98526.13;5055735;28;21442;-64
2023/10/25 09:49:21;;;;;;;6.90;5.20;;;;;;;12.01;96.09;98531.09;5057292;28;20197;-64
2023/10/25 09:52:06;;;;;;;5.07;4.57;;;;;;;12.07;95.91;98532.56;5054491;28;20672;-62
2023/10/25 09:54:35;;;;;;;5.13;4.57;;;;;;;12.11;95.61;98522.94;5052008;28;20236;-62
2023/10/25 09:57:05;;;;;;;7.50;5.47;;;;;;;12.13;94.74;98524.56;5059694;28;20913;-65
2023/10/25 09:59:35;;;;;;;5.33;4.53;;;;;;;12.14;94.57;98525.41;5060677;28;20206;-67
2023/10/25 10:02:07;;;;;;;4.57;3.97;;;;;;;12.15;94.85;98525.34;5059675;28;20301;-64
2023/10/25 10:04:44;;;;;;;6.67;5.40;;;;;;;12.18;94.62;98526.94;5063351;28;20224;-64
2023/10/25 10:07:26;;;;;;;6.73;4.60;;;;;;;12.18;94.18;98532.09;5053375;28;20628;-63
2023/10/25 10:10:05;;;;;;;4.50;3.73;;;;;;;12.19;93.88;98521.72;5062388;28;20206;-60
2023/10/25 10:12:33;;;;;;;3.57;3.27;;;;;;;12.18;93.31;98522.59;5064007;28;21249;-64
2023/10/25 10:15:02;;;;;;;6.87;4.60;;;;;;;12.18;93.25;98521.78;5060198;28;20687;-64
2023/10/25 10:17:35;;;;;;;5.70;3.60;;;;;;;12.18;93.79;98519.19;5062006;28;20202;-64
2023/10/25 10:20:06;;;;;;;5.67;3.27;;;;;;;12.17;93.28;98525.28;5055996;28;20651;-62
2023/10/25 10:22:34;;;;;;;3.23;2.93;;;;;;;12.18;93.28;98527.78;5058814;28;20194;-63
2023/10/25 10:25:04;;;;;;;3.47;3.00;;;;;;;12.23;93.83;98531.03;5056673;28;20198;-62
2023/10/25 10:28:05;;;;;;;3.50;3.20;;;;;;;12.30;92.99;98521.28;5058322;28;20197;-65
2023/10/25 10:30:40;;;;;;;4.47;3.17;;;;;;;12.33;93.12;98524.56;5053341;28;20745;-65
2023/10/25 10:33:09;;;;;;;3.83;3.17;;;;;;;12.35;92.80;98521.91;5053544;28;20664;-66
2023/10/25 10:35:44;;;;;;;3.83;3.37;;;;;;;12.37;92.44;98511.50;5051953;28;20213;-63
2023/10/25 10:38:12;;;;;;;4.57;3.70;;;;;;;12.42;92.81;98518.16;5050900;28;20280;-65
2023/10/25 10:40:40;;;;;;;3.07;2.73;;;;;;;12.43;92.28;98509.47;5056817;28;20297;-65
2023/10/25 10:43:09;;;;;;;4.93;3.30;;;;;;;12.44;92.11;98513.75;5060890;28;20313;-62
2023/10/25 10:45:43;;;;;;;3.30;3.00;;;;;;;12.44;92.46;98520.66;5057574;28;20234;-64
2023/10/25 10:48:18;;;;;;;3.37;3.10;;;;;;;12.43;92.38;98519.81;5052456;28;20715;-63
2023/10/25 10:50:49;;;;;;;3.23;3.00;;;;;;;12.44;92.04;98516.31;5050795;28;20212;-65
2023/10/25 10:53:17;;;;;;;4.70;3.47;;;;;;;12.45;91.91;98518.03;5054699;28;20206;-67
2023/10/25 10:55:46;;;;;;;3.63;2.77;;;;;;;12.45;92.43;98523.19;5063589;28;20201;-66
2023/10/25 10:58:14;;;;;;;3.37;2.83;;;;;;;12.45;92.15;98528.34;5058748;28;20198;-66
2023/10/25 11:00:45;;;;;;;3.70;3.23;;;;;;;12.43;92.28;98514.66;5064671;28;20205;-66
2023/10/25 11:03:13;;;;;;;2.83;2.63;;;;;;;12.35;91.35;98521.06;5058807;28;20206;-68
2023/10/25 11:05:42;;;;;;;4.23;3.13;;;;;;;12.26;92.02;98517.13;5060098;28;20619;-67
2023/10/25 11:08:11;;;;;;;3.23;2.87;;;;;;;12.19;92.34;98515.72;5057611;28;20201;-68
2023/10/25 11:10:40;;;;;;;3.40;3.10;;;;;;;12.15;92.98;98515.03;5064550;28;20640;-65
2023/10/25 11:13:08;;;;;;;3.93;3.20;;;;;;;12.16;93.70;98521.03;5051693;28;20661;-68
2023/10/25 11:15:38;;;;;;;3.63;3.33;;;;;;;12.12;92.99;98524.63;5059858;28;20282;-68
2023/10/25 11:18:09;;;;;;;4.53;3.40;;;;;;;12.07;93.61;98529.97;5057939;28;20193;-66
2023/10/25 11:20:40;;;;;;;3.57;3.23;;;;;;;12.03;93.89;98525.84;5061074;28;20230;-66
2023/10/25 11:23:08;;;;;;;3.67;3.37;;;;;;;12.01;93.72;98528.50;5061755;28;20214;-65
2023/10/25 11:25:38;;;;;;;3.53;3.23;;;;;;;12.00;94.26;98524.25;5060322;28;20688;-65
2023/10/25 11:28:06;;;;;;;5.03;3.53;;;;;;;11.98;94.41;98526.03;5057059;28;20726;-65
2023/10/25 11:30:35;;;;;;;3.90;3.40;;;;;;;12.04;94.73;98532.69;5053065;28;20202;-67